sensor_id;sensor_type;location;lat;lon;timestamp;temperature;humidity
15013;DHT22;7603;49.432;11.418;2023-11-19T00:01:31;4.80;99.90
15013;DHT22;7603;49.432;11.418;2023-11-19T00:03:58;4.90;99.90
15013;DHT22;7603;49.432;11.418;2023-11-19T00:06:23;4.80;99.90
15013;DHT22;7603;49.432;11.418;2023-11-19T00:08:50;4.90;99.90
15013;DHT22;7603;49.432;11.418;2023-11-19T00:11:16;4.90;99.90
15013;DHT22;7603;49.432;11.418;2023-11-19T00:13:42;4.90;99.90
15013;DHT22;7603;49.432;11.418;2023-11-19T00:16:08;4.90;99.90
15013;DHT22;7603;49.432;11.418;2023-11-19T00:18:35;4.90;99.90
15013;DHT22;7603;49.432;11.418;2023-11-19T00:21:02;4.90;99.90
15013;DHT22;7603;49.432;11.418;2023-11-19T00:23:28;5.00;99.90
15013;DHT22;7603;49.432;11.418;2023-11-19T00:25:53;5.00;99.90
15013;DHT22;7603;49.432;11.418;2023-11-19T00:28:19;5.00;99.90
15013;DHT22;7603;49.432;11.418;2023-11-19T00:30:45;5.10;99.90
15013;DHT22;7603;49.432;11.418;2023-11-19T00:33:10;5.00;99.90
15013;DHT22;7603;49.432;11.418;2023-11-19T00:35:36;5.00;99.90
15013;DHT22;7603;49.432;11.418;2023-11-19T00:38:02;5.00;99.90
15013;DHT22;7603;49.432;11.418;2023-11-19T00:40:29;5.10;99.90
15013;DHT22;7603;49.432;11.418;2023-11-19T00:42:54;5.00;99.90
15013;DHT22;7603;49.432;11.418;2023-11-19T00:45:20;5.10;99.90
15013;DHT22;7603;49.432;11.418;2023-11-19T00:47:46;5.10;99.90
15013;DHT22;7603;49.432;11.418;2023-11-19T00:50:11;5.10;99.90
15013;DHT22;7603;49.432;11.418;2023-11-19T00:52:38;5.10;99.90
15013;DHT22;7603;49.432;11.418;2023-11-19T00:55:05;5.10;99.90
15013;DHT22;7603;49.432;11.418;2023-11-19T00:57:31;5.10;99.90
15013;DHT22;7603;49.432;11.418;2023-11-19T00:59:58;5.10;99.90
15013;DHT22;7603;49.432;11.418;2023-11-19T01:02:24;5.10;99.90
15013;DHT22;7603;49.432;11.418;2023-11-19T01:04:50;5.10;99.90
15013;DHT22;7603;49.432;11.418;2023-11-19T01:07:15;5.20;99.90
15013;DHT22;7603;49.432;11.418;2023-11-19T01:09:42;5.20;99.90
15013;DHT22;7603;49.432;11.418;2023-11-19T01:12:08;5.20;99.90
15013;DHT22;7603;49.432;11.418;2023-11-19T01:14:35;5.20;99.90
15013;DHT22;7603;49.432;11.418;2023-11-19T01:17:01;5.20;99.90
15013;DHT22;7603;49.432;11.418;2023-11-19T01:19:27;5.20;99.90
15013;DHT22;7603;49.432;11.418;2023-11-19T01:21:54;5.30;99.90
15013;DHT22;7603;49.432;11.418;2023-11-19T01:24:20;5.30;99.90
15013;DHT22;7603;49.432;11.418;2023-11-19T01:26:45;5.30;99.90
15013;DHT22;7603;49.432;11.418;2023-11-19T01:29:15;5.30;99.90
15013;DHT22;7603;49.432;11.418;2023-11-19T01:31:45;5.30;99.90
15013;DHT22;7603;49.432;11.418;2023-11-19T01:34:11;5.30;99.90
15013;DHT22;7603;49.432;11.418;2023-11-19T01:36:37;5.50;99.90
15013;DHT22;7603;49.432;11.418;2023-11-19T01:39:03;5.40;99.90
15013;DHT22;7603;49.432;11.418;2023-11-19T01:41:34;5.40;99.90
15013;DHT22;7603;49.432;11.418;2023-11-19T01:44:00;5.40;99.90
15013;DHT22;7603;49.432;11.418;2023-11-19T01:46:25;5.40;99.90
15013;DHT22;7603;49.432;11.418;2023-11-19T01:48:52;5.40;99.90
15013;DHT22;7603;49.432;11.418;2023-11-19T01:51:17;5.40;99.90
15013;DHT22;7603;49.432;11.418;2023-11-19T01:53:44;5.40;99.90
15013;DHT22;7603;49.432;11.418;2023-11-19T01:56:11;5.40;99.90
15013;DHT22;7603;49.432;11.418;2023-11-19T01:58:39;5.50;99.90
15013;DHT22;7603;49.432;11.418;2023-11-19T02:01:06;5.50;99.90
15013;DHT22;7603;49.432;11.418;2023-11-19T02:03:33;5.50;99.90
15013;DHT22;7603;49.432;11.418;2023-11-19T02:06:00;5.50;99.90
15013;DHT22;7603;49.432;11.418;2023-11-19T02:08:26;5.60;99.90
15013;DHT22;7603;49.432;11.418;2023-11-19T02:10:51;5.60;99.90
15013;DHT22;7603;49.432;11.418;2023-11-19T02:13:18;5.60;99.90
15013;DHT22;7603;49.432;11.418;2023-11-19T02:15:44;5.60;99.90
15013;DHT22;7603;49.432;11.418;2023-11-19T02:18:23;5.60;99.90
15013;DHT22;7603;49.432;11.418;2023-11-19T02:20:53;5.60;99.90
15013;DHT22;7603;49.432;11.418;2023-11-19T02:23:20;5.60;99.90
15013;DHT22;7603;49.432;11.418;2023-11-19T02:28:48;5.60;99.90
15013;DHT22;7603;49.432;11.418;2023-11-19T02:31:14;5.60;99.90
15013;DHT22;7603;49.432;11.418;2023-11-19T02:33:39;5.60;99.90
15013;DHT22;7603;49.432;11.418;2023-11-19T02:36:06;5.70;99.90
15013;DHT22;7603;49.432;11.418;2023-11-19T02:38:35;5.60;99.90
15013;DHT22;7603;49.432;11.418;2023-11-19T02:41:06;5.70;99.90
15013;DHT22;7603;49.432;11.418;2023-11-19T02:43:32;5.70;99.90
15013;DHT22;7603;49.432;11.418;2023-11-19T02:46:03;5.70;99.90
15013;DHT22;7603;49.432;11.418;2023-11-19T02:48:33;5.70;99.90
15013;DHT22;7603;49.432;11.418;2023-11-19T02:51:04;5.70;99.90
15013;DHT22;7603;49.432;11.418;2023-11-19T02:53:30;5.80;99.90
15013;DHT22;7603;49.432;11.418;2023-11-19T02:55:57;5.80;99.90
15013;DHT22;7603;49.432;11.418;2023-11-19T02:58:37;5.80;99.90
15013;DHT22;7603;49.432;11.418;2023-11-19T03:01:02;5.80;99.90
15013;DHT22;7603;49.432;11.418;2023-11-19T03:03:38;5.80;99.90
15013;DHT22;7603;49.432;11.418;2023-11-19T03:06:06;5.80;99.90
15013;DHT22;7603;49.432;11.418;2023-11-19T03:08:32;5.90;99.90
15013;DHT22;7603;49.432;11.418;2023-11-19T03:10:58;5.90;99.90
15013;DHT22;7603;49.432;11.418;2023-11-19T03:13:24;5.90;99.90
15013;DHT22;7603;49.432;11.418;2023-11-19T03:15:50;5.90;99.90
15013;DHT22;7603;49.432;11.418;2023-11-19T03:18:16;5.90;99.90
15013;DHT22;7603;49.432;11.418;2023-11-19T03:20:42;6.00;99.90
15013;DHT22;7603;49.432;11.418;2023-11-19T03:23:08;5.90;99.90
15013;DHT22;7603;49.432;11.418;2023-11-19T03:25:33;6.00;99.90
15013;DHT22;7603;49.432;11.418;2023-11-19T03:28:00;6.00;99.90
15013;DHT22;7603;49.432;11.418;2023-11-19T03:30:27;6.10;99.90
15013;DHT22;7603;49.432;11.418;2023-11-19T03:32:54;6.00;99.90
15013;DHT22;7603;49.432;11.418;2023-11-19T03:35:19;6.00;99.90
15013;DHT22;7603;49.432;11.418;2023-11-19T03:37:45;6.00;99.90
15013;DHT22;7603;49.432;11.418;2023-11-19T03:40:12;6.00;99.90
15013;DHT22;7603;49.432;11.418;2023-11-19T03:42:37;6.00;99.90
15013;DHT22;7603;49.432;11.418;2023-11-19T03:45:08;6.00;99.90
15013;DHT22;7603;49.432;11.418;2023-11-19T03:47:37;6.10;99.90
15013;DHT22;7603;49.432;11.418;2023-11-19T03:50:03;6.10;99.90
15013;DHT22;7603;49.432;11.418;2023-11-19T03:52:29;6.10;99.90
15013;DHT22;7603;49.432;11.418;2023-11-19T03:54:55;6.10;99.90
15013;DHT22;7603;49.432;11.418;2023-11-19T03:57:22;6.10;99.90
15013;DHT22;7603;49.432;11.418;2023-11-19T03:59:47;6.20;99.90
15013;DHT22;7603;49.432;11.418;2023-11-19T04:02:13;6.20;99.90
15013;DHT22;7603;49.432;11.418;2023-11-19T04:04:39;6.20;99.90
15013;DHT22;7603;49.432;11.418;2023-11-19T04:07:05;6.20;99.90
15013;DHT22;7603;49.432;11.418;2023-11-19T04:09:31;6.20;99.90
15013;DHT22;7603;49.432;11.418;2023-11-19T04:12:00;6.20;99.90
15013;DHT22;7603;49.432;11.418;2023-11-19T04:14:26;6.20;99.90
15013;DHT22;7603;49.432;11.418;2023-11-19T04:16:52;6.20;99.90
15013;DHT22;7603;49.432;11.418;2023-11-19T04:19:18;6.10;99.90
15013;DHT22;7603;49.432;11.418;2023-11-19T04:21:44;6.20;99.90
15013;DHT22;7603;49.432;11.418;2023-11-19T04:24:10;6.10;99.90
15013;DHT22;7603;49.432;11.418;2023-11-19T04:26:43;6.10;99.90
15013;DHT22;7603;49.432;11.418;2023-11-19T04:29:12;6.10;99.90
15013;DHT22;7603;49.432;11.418;2023-11-19T04:31:38;6.20;99.90
15013;DHT22;7603;49.432;11.418;2023-11-19T04:34:05;6.20;99.90
15013;DHT22;7603;49.432;11.418;2023-11-19T04:36:31;6.20;99.90
15013;DHT22;7603;49.432;11.418;2023-11-19T04:38:58;6.30;99.90
15013;DHT22;7603;49.432;11.418;2023-11-19T04:41:25;6.40;99.90
15013;DHT22;7603;49.432;11.418;2023-11-19T04:43:50;6.40;99.90
15013;DHT22;7603;49.432;11.418;2023-11-19T04:46:16;6.50;99.90
15013;DHT22;7603;49.432;11.418;2023-11-19T04:48:41;6.50;99.90
15013;DHT22;7603;49.432;11.418;2023-11-19T04:51:07;6.60;99.90
15013;DHT22;7603;49.432;11.418;2023-11-19T04:53:35;6.60;99.90
15013;DHT22;7603;49.432;11.418;2023-11-19T04:56:00;6.70;99.90
15013;DHT22;7603;49.432;11.418;2023-11-19T04:58:28;6.70;99.90
15013;DHT22;7603;49.432;11.418;2023-11-19T05:00:54;6.80;99.90
15013;DHT22;7603;49.432;11.418;2023-11-19T05:03:20;6.80;99.90
15013;DHT22;7603;49.432;11.418;2023-11-19T05:05:45;6.80;99.90
15013;DHT22;7603;49.432;11.418;2023-11-19T05:08:11;6.90;99.90
15013;DHT22;7603;49.432;11.418;2023-11-19T05:10:37;6.90;99.90
15013;DHT22;7603;49.432;11.418;2023-11-19T05:13:02;7.00;99.90
15013;DHT22;7603;49.432;11.418;2023-11-19T05:15:28;7.00;99.90
15013;DHT22;7603;49.432;11.418;2023-11-19T05:17:53;7.10;99.90
15013;DHT22;7603;49.432;11.418;2023-11-19T05:20:19;7.10;99.90
15013;DHT22;7603;49.432;11.418;2023-11-19T05:22:45;7.20;99.90
15013;DHT22;7603;49.432;11.418;2023-11-19T05:25:11;7.20;99.90
15013;DHT22;7603;49.432;11.418;2023-11-19T05:27:37;7.20;99.90
15013;DHT22;7603;49.432;11.418;2023-11-19T05:30:04;7.20;99.90
15013;DHT22;7603;49.432;11.418;2023-11-19T05:32:32;7.20;99.90
15013;DHT22;7603;49.432;11.418;2023-11-19T05:34:58;7.30;99.90
15013;DHT22;7603;49.432;11.418;2023-11-19T05:37:24;7.30;99.90
15013;DHT22;7603;49.432;11.418;2023-11-19T05:39:50;7.30;99.90
15013;DHT22;7603;49.432;11.418;2023-11-19T05:42:16;7.30;99.90
15013;DHT22;7603;49.432;11.418;2023-11-19T05:44:42;7.30;99.90
15013;DHT22;7603;49.432;11.418;2023-11-19T05:47:08;7.40;99.90
15013;DHT22;7603;49.432;11.418;2023-11-19T05:49:33;7.40;99.90
15013;DHT22;7603;49.432;11.418;2023-11-19T05:51:59;7.50;99.90
15013;DHT22;7603;49.432;11.418;2023-11-19T05:54:24;7.50;99.90
15013;DHT22;7603;49.432;11.418;2023-11-19T05:56:51;7.50;99.90
15013;DHT22;7603;49.432;11.418;2023-11-19T05:59:19;7.50;99.90
15013;DHT22;7603;49.432;11.418;2023-11-19T06:01:45;7.60;99.90
15013;DHT22;7603;49.432;11.418;2023-11-19T06:04:11;7.60;99.90
15013;DHT22;7603;49.432;11.418;2023-11-19T06:06:37;7.70;99.90
15013;DHT22;7603;49.432;11.418;2023-11-19T06:09:03;7.60;99.90
15013;DHT22;7603;49.432;11.418;2023-11-19T06:11:30;7.70;99.90
15013;DHT22;7603;49.432;11.418;2023-11-19T06:13:55;7.70;99.90
15013;DHT22;7603;49.432;11.418;2023-11-19T06:16:21;7.80;99.90
15013;DHT22;7603;49.432;11.418;2023-11-19T06:18:47;7.90;99.90
15013;DHT22;7603;49.432;11.418;2023-11-19T06:21:13;7.80;99.90
15013;DHT22;7603;49.432;11.418;2023-11-19T06:23:38;7.90;99.90
15013;DHT22;7603;49.432;11.418;2023-11-19T06:26:04;7.90;99.90
15013;DHT22;7603;49.432;11.418;2023-11-19T06:28:31;7.90;99.90
15013;DHT22;7603;49.432;11.418;2023-11-19T06:30:56;7.90;99.90
15013;DHT22;7603;49.432;11.418;2023-11-19T06:33:24;7.90;99.90
15013;DHT22;7603;49.432;11.418;2023-11-19T06:35:49;8.10;99.90
15013;DHT22;7603;49.432;11.418;2023-11-19T06:38:15;8.00;99.90
15013;DHT22;7603;49.432;11.418;2023-11-19T06:40:40;8.10;99.90
15013;DHT22;7603;49.432;11.418;2023-11-19T06:43:06;8.00;99.90
15013;DHT22;7603;49.432;11.418;2023-11-19T06:45:34;8.20;99.90
15013;DHT22;7603;49.432;11.418;2023-11-19T06:48:03;8.00;99.90
15013;DHT22;7603;49.432;11.418;2023-11-19T06:50:30;8.10;99.90
15013;DHT22;7603;49.432;11.418;2023-11-19T06:52:56;8.10;99.90
15013;DHT22;7603;49.432;11.418;2023-11-19T06:55:21;8.10;99.90
15013;DHT22;7603;49.432;11.418;2023-11-19T06:57:47;8.20;99.90
15013;DHT22;7603;49.432;11.418;2023-11-19T07:00:13;8.20;99.90
15013;DHT22;7603;49.432;11.418;2023-11-19T07:02:39;8.20;99.90
15013;DHT22;7603;49.432;11.418;2023-11-19T07:05:05;8.20;99.90
15013;DHT22;7603;49.432;11.418;2023-11-19T07:07:31;8.20;99.90
15013;DHT22;7603;49.432;11.418;2023-11-19T07:09:58;8.30;99.90
15013;DHT22;7603;49.432;11.418;2023-11-19T07:12:23;8.30;99.90
15013;DHT22;7603;49.432;11.418;2023-11-19T07:14:52;8.30;99.90
15013;DHT22;7603;49.432;11.418;2023-11-19T07:17:18;8.30;99.90
15013;DHT22;7603;49.432;11.418;2023-11-19T07:19:45;8.20;99.90
15013;DHT22;7603;49.432;11.418;2023-11-19T07:22:11;8.40;99.90
15013;DHT22;7603;49.432;11.418;2023-11-19T07:24:39;8.40;99.90
15013;DHT22;7603;49.432;11.418;2023-11-19T07:27:05;8.40;99.90
15013;DHT22;7603;49.432;11.418;2023-11-19T07:29:32;8.50;99.90
15013;DHT22;7603;49.432;11.418;2023-11-19T07:31:57;8.60;99.90
15013;DHT22;7603;49.432;11.418;2023-11-19T07:34:24;8.50;99.90
15013;DHT22;7603;49.432;11.418;2023-11-19T07:36:50;8.60;99.90
15013;DHT22;7603;49.432;11.418;2023-11-19T07:39:15;8.60;99.90
15013;DHT22;7603;49.432;11.418;2023-11-19T07:41:41;8.70;99.90
15013;DHT22;7603;49.432;11.418;2023-11-19T07:44:07;8.80;99.90
15013;DHT22;7603;49.432;11.418;2023-11-19T07:46:32;8.80;99.90
15013;DHT22;7603;49.432;11.418;2023-11-19T07:48:58;8.80;99.90
15013;DHT22;7603;49.432;11.418;2023-11-19T07:51:23;8.90;99.90
15013;DHT22;7603;49.432;11.418;2023-11-19T07:53:49;8.90;99.90
15013;DHT22;7603;49.432;11.418;2023-11-19T07:56:15;9.00;99.90
15013;DHT22;7603;49.432;11.418;2023-11-19T07:58:40;8.90;99.90
15013;DHT22;7603;49.432;11.418;2023-11-19T08:01:06;9.00;99.90
15013;DHT22;7603;49.432;11.418;2023-11-19T08:03:32;9.10;99.90
15013;DHT22;7603;49.432;11.418;2023-11-19T08:05:59;9.40;99.90
15013;DHT22;7603;49.432;11.418;2023-11-19T08:08:25;9.30;99.90
15013;DHT22;7603;49.432;11.418;2023-11-19T08:10:51;9.40;99.90
15013;DHT22;7603;49.432;11.418;2023-11-19T08:13:18;9.40;99.90
15013;DHT22;7603;49.432;11.418;2023-11-19T08:15:43;9.50;99.90
15013;DHT22;7603;49.432;11.418;2023-11-19T08:18:09;9.60;99.90
15013;DHT22;7603;49.432;11.418;2023-11-19T08:20:35;9.60;99.90
15013;DHT22;7603;49.432;11.418;2023-11-19T08:23:02;9.70;99.90
15013;DHT22;7603;49.432;11.418;2023-11-19T08:25:29;9.70;99.90
15013;DHT22;7603;49.432;11.418;2023-11-19T08:27:54;9.80;99.90
15013;DHT22;7603;49.432;11.418;2023-11-19T08:30:20;9.90;99.90
15013;DHT22;7603;49.432;11.418;2023-11-19T08:32:45;9.80;99.90
15013;DHT22;7603;49.432;11.418;2023-11-19T08:35:11;9.90;99.90
15013;DHT22;7603;49.432;11.418;2023-11-19T08:37:36;9.90;99.90
15013;DHT22;7603;49.432;11.418;2023-11-19T08:40:04;10.00;99.90
15013;DHT22;7603;49.432;11.418;2023-11-19T08:42:30;10.00;99.90
15013;DHT22;7603;49.432;11.418;2023-11-19T08:44:56;10.00;99.90
15013;DHT22;7603;49.432;11.418;2023-11-19T08:47:21;10.10;99.90
15013;DHT22;7603;49.432;11.418;2023-11-19T08:49:50;10.10;99.90
15013;DHT22;7603;49.432;11.418;2023-11-19T08:52:17;10.00;99.90
15013;DHT22;7603;49.432;11.418;2023-11-19T08:54:43;10.10;99.90
15013;DHT22;7603;49.432;11.418;2023-11-19T08:57:08;10.20;99.90
15013;DHT22;7603;49.432;11.418;2023-11-19T08:59:35;10.10;99.90
15013;DHT22;7603;49.432;11.418;2023-11-19T09:02:00;10.10;99.90
15013;DHT22;7603;49.432;11.418;2023-11-19T09:04:26;10.20;99.90
15013;DHT22;7603;49.432;11.418;2023-11-19T09:06:51;10.20;99.90
15013;DHT22;7603;49.432;11.418;2023-11-19T09:09:17;10.30;99.90
15013;DHT22;7603;49.432;11.418;2023-11-19T09:11:42;10.40;99.90
15013;DHT22;7603;49.432;11.418;2023-11-19T09:14:08;10.40;99.90
15013;DHT22;7603;49.432;11.418;2023-11-19T09:16:34;10.60;99.90
15013;DHT22;7603;49.432;11.418;2023-11-19T09:19:00;10.50;99.90
15013;DHT22;7603;49.432;11.418;2023-11-19T09:21:26;10.50;99.90
15013;DHT22;7603;49.432;11.418;2023-11-19T09:23:51;10.70;99.90
15013;DHT22;7603;49.432;11.418;2023-11-19T09:26:19;10.80;99.90
15013;DHT22;7603;49.432;11.418;2023-11-19T09:28:44;10.90;99.90
15013;DHT22;7603;49.432;11.418;2023-11-19T09:31:17;11.10;99.90
15013;DHT22;7603;49.432;11.418;2023-11-19T09:33:44;11.10;99.90
15013;DHT22;7603;49.432;11.418;2023-11-19T09:36:12;11.30;99.90
15013;DHT22;7603;49.432;11.418;2023-11-19T09:38:43;11.30;99.90
15013;DHT22;7603;49.432;11.418;2023-11-19T09:41:10;11.40;99.90
15013;DHT22;7603;49.432;11.418;2023-11-19T09:43:41;11.40;99.90
15013;DHT22;7603;49.432;11.418;2023-11-19T09:46:09;11.50;99.90
15013;DHT22;7603;49.432;11.418;2023-11-19T09:48:37;11.60;99.90
15013;DHT22;7603;49.432;11.418;2023-11-19T09:51:04;11.60;99.90
15013;DHT22;7603;49.432;11.418;2023-11-19T09:53:31;11.70;99.90
15013;DHT22;7603;49.432;11.418;2023-11-19T09:55:57;11.80;99.90
15013;DHT22;7603;49.432;11.418;2023-11-19T09:58:23;11.80;99.90
15013;DHT22;7603;49.432;11.418;2023-11-19T10:00:50;11.80;99.90
15013;DHT22;7603;49.432;11.418;2023-11-19T10:03:17;11.80;99.90
15013;DHT22;7603;49.432;11.418;2023-11-19T10:05:42;11.90;99.90
15013;DHT22;7603;49.432;11.418;2023-11-19T10:08:08;11.90;99.90
15013;DHT22;7603;49.432;11.418;2023-11-19T10:10:36;11.80;99.90
15013;DHT22;7603;49.432;11.418;2023-11-19T10:13:02;11.90;99.90
15013;DHT22;7603;49.432;11.418;2023-11-19T10:15:28;11.90;99.90
15013;DHT22;7603;49.432;11.418;2023-11-19T10:17:58;11.90;99.90
15013;DHT22;7603;49.432;11.418;2023-11-19T10:20:24;11.90;99.90
15013;DHT22;7603;49.432;11.418;2023-11-19T10:22:53;12.00;99.90
15013;DHT22;7603;49.432;11.418;2023-11-19T10:27:52;12.10;99.90
15013;DHT22;7603;49.432;11.418;2023-11-19T10:30:23;12.20;99.90
15013;DHT22;7603;49.432;11.418;2023-11-19T10:33:11;12.20;99.90
15013;DHT22;7603;49.432;11.418;2023-11-19T10:35:57;12.30;99.90
15013;DHT22;7603;49.432;11.418;2023-11-19T10:38:24;12.40;99.90
15013;DHT22;7603;49.432;11.418;2023-11-19T10:40:51;12.40;99.90
15013;DHT22;7603;49.432;11.418;2023-11-19T10:43:18;12.50;99.90
15013;DHT22;7603;49.432;11.418;2023-11-19T10:45:43;12.60;99.90
15013;DHT22;7603;49.432;11.418;2023-11-19T10:48:10;12.60;99.90
15013;DHT22;7603;49.432;11.418;2023-11-19T10:50:36;12.60;99.90
15013;DHT22;7603;49.432;11.418;2023-11-19T10:53:03;12.50;99.90
15013;DHT22;7603;49.432;11.418;2023-11-19T10:55:34;12.50;99.90
15013;DHT22;7603;49.432;11.418;2023-11-19T10:58:02;12.40;99.90
15013;DHT22;7603;49.432;11.418;2023-11-19T11:00:37;12.40;99.90
15013;DHT22;7603;49.432;11.418;2023-11-19T11:03:10;12.30;99.90
15013;DHT22;7603;49.432;11.418;2023-11-19T11:05:37;12.30;99.90
15013;DHT22;7603;49.432;11.418;2023-11-19T11:08:06;12.30;99.90
15013;DHT22;7603;49.432;11.418;2023-11-19T11:10:39;12.40;99.90
15013;DHT22;7603;49.432;11.418;2023-11-19T11:13:07;12.40;99.90
15013;DHT22;7603;49.432;11.418;2023-11-19T11:15:34;12.40;99.90
15013;DHT22;7603;49.432;11.418;2023-11-19T11:18:02;12.50;99.90
15013;DHT22;7603;49.432;11.418;2023-11-19T11:20:31;12.70;99.90
15013;DHT22;7603;49.432;11.418;2023-11-19T11:36:16;13.70;99.90
15013;DHT22;7603;49.432;11.418;2023-11-19T11:38:47;13.70;99.90
15013;DHT22;7603;49.432;11.418;2023-11-19T11:41:23;13.60;99.90
15013;DHT22;7603;49.432;11.418;2023-11-19T11:43:54;13.60;99.90
15013;DHT22;7603;49.432;11.418;2023-11-19T11:49:08;13.70;99.90
15013;DHT22;7603;49.432;11.418;2023-11-19T11:57:10;14.00;99.90
15013;DHT22;7603;49.432;11.418;2023-11-19T11:59:37;14.10;99.90
15013;DHT22;7603;49.432;11.418;2023-11-19T12:02:04;14.00;99.90
15013;DHT22;7603;49.432;11.418;2023-11-19T12:04:30;14.20;99.90
15013;DHT22;7603;49.432;11.418;2023-11-19T12:09:41;14.10;99.90
15013;DHT22;7603;49.432;11.418;2023-11-19T12:12:18;14.10;99.90
15013;DHT22;7603;49.432;11.418;2023-11-19T12:15:05;14.00;99.90
15013;DHT22;7603;49.432;11.418;2023-11-19T12:20:00;13.90;99.90
15013;DHT22;7603;49.432;11.418;2023-11-19T12:22:26;13.80;99.90
15013;DHT22;7603;49.432;11.418;2023-11-19T12:24:55;13.80;99.90
15013;DHT22;7603;49.432;11.418;2023-11-19T12:27:21;13.60;99.90
15013;DHT22;7603;49.432;11.418;2023-11-19T12:29:48;13.40;99.90
15013;DHT22;7603;49.432;11.418;2023-11-19T12:32:14;13.30;99.90
15013;DHT22;7603;49.432;11.418;2023-11-19T12:34:39;13.10;99.90
15013;DHT22;7603;49.432;11.418;2023-11-19T12:37:05;13.00;99.90
15013;DHT22;7603;49.432;11.418;2023-11-19T12:39:31;12.90;99.90
15013;DHT22;7603;49.432;11.418;2023-11-19T12:41:57;12.70;99.90
15013;DHT22;7603;49.432;11.418;2023-11-19T12:44:25;12.50;99.90
15013;DHT22;7603;49.432;11.418;2023-11-19T12:47:09;12.40;99.90
15013;DHT22;7603;49.432;11.418;2023-11-19T12:49:36;12.30;99.90
15013;DHT22;7603;49.432;11.418;2023-11-19T12:52:11;12.20;99.90
15013;DHT22;7603;49.432;11.418;2023-11-19T12:54:38;12.40;99.90
15013;DHT22;7603;49.432;11.418;2023-11-19T12:57:04;12.50;99.90
15013;DHT22;7603;49.432;11.418;2023-11-19T12:59:31;12.70;99.90
15013;DHT22;7603;49.432;11.418;2023-11-19T13:01:57;12.90;99.90
15013;DHT22;7603;49.432;11.418;2023-11-19T13:04:27;13.10;99.90
15013;DHT22;7603;49.432;11.418;2023-11-19T13:06:53;13.10;99.90
15013;DHT22;7603;49.432;11.418;2023-11-19T13:09:26;13.10;99.90
15013;DHT22;7603;49.432;11.418;2023-11-19T13:11:53;13.00;99.90
15013;DHT22;7603;49.432;11.418;2023-11-19T13:14:19;12.90;99.90
15013;DHT22;7603;49.432;11.418;2023-11-19T13:16:44;12.90;99.90
15013;DHT22;7603;49.432;11.418;2023-11-19T13:19:17;12.90;99.90
15013;DHT22;7603;49.432;11.418;2023-11-19T13:21:44;13.00;99.90
15013;DHT22;7603;49.432;11.418;2023-11-19T13:24:12;13.20;99.90
15013;DHT22;7603;49.432;11.418;2023-11-19T13:26:38;13.40;99.90
15013;DHT22;7603;49.432;11.418;2023-11-19T13:29:04;13.50;99.90
15013;DHT22;7603;49.432;11.418;2023-11-19T13:31:29;13.50;99.90
15013;DHT22;7603;49.432;11.418;2023-11-19T13:33:55;13.50;99.90
15013;DHT22;7603;49.432;11.418;2023-11-19T13:36:22;13.50;99.90
15013;DHT22;7603;49.432;11.418;2023-11-19T13:38:48;13.40;99.90
15013;DHT22;7603;49.432;11.418;2023-11-19T13:41:13;13.40;99.90
15013;DHT22;7603;49.432;11.418;2023-11-19T13:43:40;13.30;99.90
15013;DHT22;7603;49.432;11.418;2023-11-19T13:46:06;13.20;99.90
15013;DHT22;7603;49.432;11.418;2023-11-19T13:48:31;13.20;99.90
15013;DHT22;7603;49.432;11.418;2023-11-19T13:50:57;13.10;99.90
15013;DHT22;7603;49.432;11.418;2023-11-19T13:53:23;13.10;99.90
15013;DHT22;7603;49.432;11.418;2023-11-19T13:55:49;12.90;99.90
15013;DHT22;7603;49.432;11.418;2023-11-19T13:58:15;12.90;99.90
15013;DHT22;7603;49.432;11.418;2023-11-19T14:00:41;12.90;99.90
15013;DHT22;7603;49.432;11.418;2023-11-19T14:03:09;12.90;99.90
15013;DHT22;7603;49.432;11.418;2023-11-19T14:05:35;12.90;99.90
15013;DHT22;7603;49.432;11.418;2023-11-19T14:08:01;12.90;99.90
15013;DHT22;7603;49.432;11.418;2023-11-19T14:10:27;12.90;99.90
15013;DHT22;7603;49.432;11.418;2023-11-19T14:12:52;12.90;99.90
15013;DHT22;7603;49.432;11.418;2023-11-19T14:15:18;12.90;99.90
15013;DHT22;7603;49.432;11.418;2023-11-19T14:17:44;12.90;99.90
15013;DHT22;7603;49.432;11.418;2023-11-19T14:20:10;12.90;99.90
15013;DHT22;7603;49.432;11.418;2023-11-19T14:22:41;12.80;99.90
15013;DHT22;7603;49.432;11.418;2023-11-19T14:25:07;12.80;99.90
15013;DHT22;7603;49.432;11.418;2023-11-19T14:27:38;12.80;99.90
15013;DHT22;7603;49.432;11.418;2023-11-19T14:30:06;12.90;99.90
15013;DHT22;7603;49.432;11.418;2023-11-19T14:32:32;13.00;99.90
15013;DHT22;7603;49.432;11.418;2023-11-19T14:34:58;13.20;99.90
15013;DHT22;7603;49.432;11.418;2023-11-19T14:37:24;13.40;99.90
15013;DHT22;7603;49.432;11.418;2023-11-19T14:39:49;13.50;99.90
15013;DHT22;7603;49.432;11.418;2023-11-19T14:42:16;13.40;99.90
15013;DHT22;7603;49.432;11.418;2023-11-19T14:44:42;13.30;99.90
15013;DHT22;7603;49.432;11.418;2023-11-19T14:47:08;13.20;99.90
15013;DHT22;7603;49.432;11.418;2023-11-19T14:49:36;13.00;99.90
15013;DHT22;7603;49.432;11.418;2023-11-19T14:52:04;12.90;99.90
15013;DHT22;7603;49.432;11.418;2023-11-19T14:54:30;12.80;99.90
15013;DHT22;7603;49.432;11.418;2023-11-19T14:56:56;12.80;99.90
15013;DHT22;7603;49.432;11.418;2023-11-19T14:59:22;12.80;99.90
15013;DHT22;7603;49.432;11.418;2023-11-19T15:01:47;12.80;99.90
15013;DHT22;7603;49.432;11.418;2023-11-19T15:04:13;12.80;99.90
15013;DHT22;7603;49.432;11.418;2023-11-19T15:06:39;12.90;99.90
15013;DHT22;7603;49.432;11.418;2023-11-19T15:09:04;12.90;99.90
15013;DHT22;7603;49.432;11.418;2023-11-19T15:11:30;12.90;99.90
15013;DHT22;7603;49.432;11.418;2023-11-19T15:13:56;12.90;99.90
15013;DHT22;7603;49.432;11.418;2023-11-19T15:16:22;12.70;99.90
15013;DHT22;7603;49.432;11.418;2023-11-19T15:18:57;12.70;99.90
15013;DHT22;7603;49.432;11.418;2023-11-19T15:21:25;12.70;99.90
15013;DHT22;7603;49.432;11.418;2023-11-19T15:23:52;12.60;99.90
15013;DHT22;7603;49.432;11.418;2023-11-19T15:26:18;12.60;99.90
15013;DHT22;7603;49.432;11.418;2023-11-19T15:28:44;12.60;99.90
15013;DHT22;7603;49.432;11.418;2023-11-19T15:31:10;12.50;99.90
15013;DHT22;7603;49.432;11.418;2023-11-19T15:33:35;12.50;99.90
15013;DHT22;7603;49.432;11.418;2023-11-19T15:36:01;12.50;99.90
15013;DHT22;7603;49.432;11.418;2023-11-19T15:38:28;12.40;99.90
15013;DHT22;7603;49.432;11.418;2023-11-19T15:40:54;12.40;99.90
15013;DHT22;7603;49.432;11.418;2023-11-19T15:43:20;12.40;99.90
15013;DHT22;7603;49.432;11.418;2023-11-19T15:45:46;12.30;99.90
15013;DHT22;7603;49.432;11.418;2023-11-19T15:48:11;12.30;99.90
15013;DHT22;7603;49.432;11.418;2023-11-19T15:50:39;12.30;99.90
15013;DHT22;7603;49.432;11.418;2023-11-19T15:53:04;12.20;99.90
15013;DHT22;7603;49.432;11.418;2023-11-19T15:55:30;12.10;99.90
15013;DHT22;7603;49.432;11.418;2023-11-19T15:57:56;12.20;99.90
15013;DHT22;7603;49.432;11.418;2023-11-19T16:00:22;12.10;99.90
15013;DHT22;7603;49.432;11.418;2023-11-19T16:02:50;12.10;99.90
15013;DHT22;7603;49.432;11.418;2023-11-19T16:05:16;12.00;99.90
15013;DHT22;7603;49.432;11.418;2023-11-19T16:07:41;11.90;99.90
15013;DHT22;7603;49.432;11.418;2023-11-19T16:10:08;11.70;99.90